createdAt,value
2018-11-05T00:00:55.092Z,94.37
2018-11-05T00:01:55.561Z,94.21
2018-11-05T00:02:56.032Z,94.08
2018-11-05T00:03:56.500Z,93.89
2018-11-05T00:04:56.971Z,93.74
2018-11-05T00:05:57.444Z,93.51
2018-11-05T00:06:57.958Z,93.17
2018-11-05T00:07:58.377Z,92.76
2018-11-05T00:08:58.845Z,92.42
2018-11-05T00:09:59.318Z,92.52
2018-11-05T00:10:59.790Z,92.76
2018-11-05T00:12:00.253Z,93.09
2018-11-05T00:13:00.723Z,93.42
2018-11-05T00:14:01.195Z,93.68
2018-11-05T00:15:01.671Z,93.98
2018-11-05T00:16:02.131Z,94.19
2018-11-05T00:17:02.598Z,94.41
2018-11-05T00:18:03.067Z,94.59
2018-11-05T00:19:03.540Z,94.74
2018-11-05T00:20:04.003Z,94.88
2018-11-05T00:21:04.474Z,94.94
2018-11-05T00:22:04.942Z,94.94
2018-11-05T00:23:05.412Z,95.01
2018-11-05T00:24:05.880Z,95.06
2018-11-05T00:25:06.350Z,95.15
2018-11-05T00:26:06.818Z,95.19
2018-11-05T00:27:07.288Z,95.29
2018-11-05T00:28:07.757Z,95.28
2018-11-05T00:29:08.228Z,95.31
2018-11-05T00:30:08.697Z,95.36
2018-11-05T00:31:09.167Z,95.41
2018-11-05T00:32:09.635Z,95.46
2018-11-05T00:33:10.105Z,95.47
2018-11-05T00:34:10.584Z,95.44
2018-11-05T00:35:11.048Z,95.43
2018-11-05T00:36:11.516Z,95.46
2018-11-05T00:37:11.988Z,95.47
2018-11-05T00:38:12.455Z,95.50
2018-11-05T00:39:12.927Z,95.51
2018-11-05T00:40:13.397Z,95.50
2018-11-05T00:41:13.868Z,95.38
2018-11-05T00:42:14.339Z,95.23
2018-11-05T00:43:14.808Z,95.14
2018-11-05T00:44:15.279Z,95.07
2018-11-05T00:45:15.749Z,95.11
2018-11-05T00:46:16.221Z,95.17
2018-11-05T00:47:16.743Z,95.23
2018-11-05T00:48:17.160Z,95.27
2018-11-05T00:49:17.636Z,95.34
2018-11-05T00:50:18.106Z,95.42
2018-11-05T00:51:18.576Z,95.39
2018-11-05T00:53:19.517Z,94.69
2018-11-05T00:54:19.989Z,94.37
2018-11-05T00:55:20.459Z,94.05
2018-11-05T00:56:20.941Z,93.80
2018-11-05T00:57:21.407Z,93.59
2018-11-05T00:58:21.873Z,93.60
2018-11-05T00:59:22.345Z,93.65
2018-11-05T01:00:22.815Z,93.63
2018-11-05T01:01:23.289Z,93.76
2018-11-05T01:02:23.812Z,93.91
2018-11-05T01:03:24.234Z,94.08
2018-11-05T01:04:24.703Z,94.22
2018-11-05T01:05:25.175Z,94.37
2018-11-05T01:06:25.648Z,94.47
2018-11-05T01:07:26.121Z,94.57
2018-11-05T01:08:26.592Z,94.69
2018-11-05T01:09:27.063Z,94.82
2018-11-05T01:10:27.539Z,94.92
2018-11-05T01:11:28.007Z,95.03
2018-11-05T01:12:28.482Z,95.12
2018-11-05T01:13:28.952Z,95.21
2018-11-05T01:14:29.423Z,95.28
2018-11-05T01:15:29.899Z,95.36
2018-11-05T01:16:30.368Z,95.39
2018-11-05T01:17:30.838Z,95.43
2018-11-05T01:18:31.313Z,95.46
2018-11-05T01:19:31.787Z,95.50
2018-11-05T01:20:32.258Z,95.51
2018-11-05T01:21:32.731Z,95.56
2018-11-05T01:22:33.205Z,95.59
2018-11-05T01:23:33.676Z,95.62
2018-11-05T01:24:34.146Z,95.66
2018-11-05T01:25:34.619Z,95.69
2018-11-05T01:26:35.090Z,95.71
2018-11-05T01:27:35.566Z,95.75
2018-11-05T01:28:36.037Z,95.79
2018-11-05T01:29:36.509Z,95.82
2018-11-05T01:30:36.982Z,95.84
2018-11-05T01:31:37.453Z,95.88
2018-11-05T01:32:37.930Z,95.90
2018-11-05T01:33:38.397Z,95.95
2018-11-05T01:34:38.874Z,95.94
2018-11-05T01:35:39.359Z,95.93
2018-11-05T01:36:39.819Z,95.90
2018-11-05T01:37:40.299Z,95.81
2018-11-05T01:38:40.815Z,95.80
2018-11-05T01:39:41.251Z,95.80
2018-11-05T01:40:41.707Z,95.77
2018-11-05T01:41:42.180Z,95.77
2018-11-05T01:42:42.651Z,95.72
2018-11-05T01:43:43.128Z,95.72
2018-11-05T01:44:43.598Z,95.75
2018-11-05T01:45:44.072Z,95.71
2018-11-05T01:46:44.543Z,95.74
2018-11-05T01:47:45.016Z,95.73
2018-11-05T01:48:45.486Z,95.76
2018-11-05T01:49:45.963Z,95.78
2018-11-05T01:50:46.434Z,95.82
2018-11-05T01:51:46.905Z,95.81
2018-11-05T01:52:47.428Z,95.86
2018-11-05T01:53:47.849Z,95.90
2018-11-05T01:54:48.320Z,95.92
2018-11-05T01:55:48.792Z,95.96
2018-11-05T01:56:49.264Z,95.98
2018-11-05T01:57:49.733Z,96.00
2018-11-05T01:58:50.206Z,96.05
2018-11-05T01:59:50.679Z,96.03
2018-11-05T02:00:51.149Z,96.02
2018-11-05T02:01:51.619Z,96.03
2018-11-05T02:02:52.090Z,96.02
2018-11-05T02:03:52.560Z,96.03
2018-11-05T02:04:53.030Z,96.03
2018-11-05T02:05:53.499Z,96.06
2018-11-05T02:06:53.968Z,96.06
2018-11-05T02:07:54.488Z,96.12
2018-11-05T02:08:54.906Z,96.13
2018-11-05T02:09:55.374Z,96.13
2018-11-05T02:10:55.852Z,96.17
2018-11-05T02:11:56.313Z,96.17
2018-11-05T02:12:56.833Z,96.24
2018-11-05T02:13:57.252Z,96.25
2018-11-05T02:14:57.723Z,96.24
2018-11-05T02:15:58.203Z,96.25
2018-11-05T02:16:58.659Z,96.28
2018-11-05T02:17:59.186Z,96.29
2018-11-05T02:18:59.600Z,96.33
2018-11-05T02:20:00.066Z,96.33
2018-11-05T02:21:00.531Z,96.33
2018-11-05T02:22:01.000Z,96.33
2018-11-05T02:23:01.469Z,96.35
2018-11-05T02:24:01.938Z,96.38
2018-11-05T02:25:02.415Z,96.41
2018-11-05T02:26:02.876Z,96.39
2018-11-05T02:27:03.391Z,96.36
2018-11-05T02:28:03.815Z,96.36
2018-11-05T02:29:04.283Z,96.36
2018-11-05T02:30:04.752Z,96.36
2018-11-05T02:31:05.221Z,96.37
2018-11-05T02:32:05.688Z,96.37
2018-11-05T02:33:06.208Z,96.34
2018-11-05T02:34:06.625Z,96.29
2018-11-05T02:35:07.135Z,96.26
2018-11-05T02:36:07.565Z,96.25
2018-11-05T02:37:08.037Z,96.24
2018-11-05T02:38:08.503Z,96.22
2018-11-05T02:39:08.976Z,96.23
2018-11-05T02:40:09.445Z,96.22
2018-11-05T02:41:09.914Z,96.27
2018-11-05T02:42:10.387Z,96.27
2018-11-05T02:43:10.854Z,96.27
2018-11-05T02:44:11.324Z,96.30
2018-11-05T02:45:11.794Z,96.27
2018-11-05T02:46:12.263Z,96.31
2018-11-05T02:47:12.734Z,96.34
2018-11-05T02:48:13.204Z,96.34
2018-11-05T02:49:13.674Z,96.35
2018-11-05T02:50:14.150Z,96.34
2018-11-05T02:51:14.615Z,96.36
2018-11-05T02:52:15.087Z,96.33
2018-11-05T02:53:15.554Z,96.34
2018-11-05T02:54:16.028Z,96.35
2018-11-05T02:55:16.496Z,96.36
2018-11-05T02:56:16.967Z,96.32
2018-11-05T02:57:17.436Z,96.32
2018-11-05T02:58:17.907Z,96.32
2018-11-05T02:59:18.379Z,96.34
2018-11-05T03:00:18.851Z,96.32
2018-11-05T03:01:19.323Z,96.32
2018-11-05T03:02:19.793Z,96.32
2018-11-05T03:03:20.401Z,96.32
2018-11-05T03:04:20.736Z,96.32
2018-11-05T03:05:21.204Z,96.30
2018-11-05T03:06:21.677Z,96.33
2018-11-05T03:07:22.153Z,96.30
2018-11-05T03:08:22.621Z,96.27
2018-11-05T03:09:23.088Z,96.24
2018-11-05T03:10:23.560Z,96.16
2018-11-05T03:11:24.033Z,96.16
2018-11-05T03:12:24.504Z,96.09
2018-11-05T03:13:24.974Z,96.08
2018-11-05T03:14:25.447Z,96.04
2018-11-05T03:15:25.920Z,96.01
2018-11-05T03:16:26.391Z,95.97
2018-11-05T03:17:26.859Z,95.89
2018-11-05T03:18:27.335Z,95.84
2018-11-05T03:19:27.803Z,95.82
2018-11-05T03:20:28.276Z,95.81
2018-11-05T03:21:28.748Z,95.80
2018-11-05T03:22:29.217Z,95.83
2018-11-05T03:23:29.691Z,95.84
2018-11-05T03:24:30.161Z,95.80
2018-11-05T03:25:30.633Z,95.80
2018-11-05T03:26:31.107Z,95.75
2018-11-05T03:27:31.577Z,95.74
2018-11-05T03:28:32.049Z,95.75
2018-11-05T03:29:32.524Z,95.76
2018-11-05T03:30:32.993Z,95.71
2018-11-05T03:31:33.466Z,95.71
2018-11-05T03:32:33.936Z,95.70
2018-11-05T03:33:34.407Z,95.70
2018-11-05T03:34:34.880Z,95.70
2018-11-05T03:35:35.397Z,95.69
2018-11-05T03:36:35.823Z,95.69
2018-11-05T03:37:36.301Z,95.69
2018-11-05T03:38:36.768Z,95.68
2018-11-05T03:39:37.239Z,95.64
2018-11-05T03:40:37.714Z,95.66
2018-11-05T03:41:38.184Z,95.66
2018-11-05T03:42:38.656Z,95.63
2018-11-05T03:43:39.144Z,95.61
2018-11-05T03:44:39.601Z,95.58
2018-11-05T03:45:40.110Z,95.57
2018-11-05T03:46:40.545Z,95.54
2018-11-05T03:47:41.107Z,95.54
2018-11-05T03:48:41.488Z,95.52
2018-11-05T03:49:41.997Z,95.53
2018-11-05T03:50:42.434Z,95.53
2018-11-05T03:51:42.906Z,95.44
2018-11-05T03:52:43.380Z,95.41
2018-11-05T03:53:43.849Z,95.37
2018-11-05T03:54:44.321Z,95.30
2018-11-05T03:55:44.950Z,95.28
2018-11-05T03:56:45.354Z,95.24
2018-11-05T03:57:45.739Z,95.24
2018-11-05T03:58:46.261Z,95.22
2018-11-05T03:59:46.685Z,95.26
2018-11-05T04:00:47.157Z,95.26
2018-11-05T04:01:47.625Z,95.26
2018-11-05T04:02:48.099Z,95.25
2018-11-05T04:03:48.573Z,95.27
2018-11-05T04:04:49.043Z,95.26
2018-11-05T04:05:49.516Z,95.28
2018-11-05T04:06:49.988Z,95.33
2018-11-05T04:07:50.459Z,95.33
2018-11-05T04:08:50.932Z,95.36
2018-11-05T04:09:51.403Z,95.32
2018-11-05T04:10:51.877Z,95.35
2018-11-05T04:11:52.351Z,95.35
2018-11-05T04:12:52.819Z,95.35
2018-11-05T04:13:53.292Z,95.39
2018-11-05T04:14:53.765Z,95.35
2018-11-05T04:15:54.245Z,95.39
2018-11-05T04:16:54.710Z,95.39
2018-11-05T04:17:55.183Z,95.38
2018-11-05T04:18:55.658Z,95.39
2018-11-05T04:19:56.126Z,95.34
2018-11-05T04:20:56.599Z,95.33
2018-11-05T04:21:57.073Z,95.30
2018-11-05T04:22:57.544Z,95.30
2018-11-05T04:23:58.014Z,95.28
2018-11-05T04:24:58.488Z,95.30
2018-11-05T04:25:58.963Z,95.34
2018-11-05T04:26:59.432Z,95.34
2018-11-05T04:27:59.991Z,95.35
2018-11-05T04:29:00.378Z,95.35
2018-11-05T04:30:00.850Z,95.38
2018-11-05T04:31:01.326Z,95.36
2018-11-05T04:32:01.794Z,95.33
2018-11-05T04:33:02.267Z,95.28
2018-11-05T04:34:02.739Z,95.28
2018-11-05T04:35:03.211Z,95.28
2018-11-05T04:36:03.682Z,95.25
2018-11-05T04:37:04.158Z,95.23
2018-11-05T04:38:04.627Z,95.23
2018-11-05T04:39:05.099Z,95.15
2018-11-05T04:40:05.573Z,95.10
2018-11-05T04:41:06.047Z,95.07
2018-11-05T04:42:06.517Z,95.05
2018-11-05T04:43:06.991Z,94.97
2018-11-05T04:44:07.464Z,94.94
2018-11-05T04:45:07.937Z,94.86
2018-11-05T04:46:08.410Z,94.89
2018-11-05T04:47:08.883Z,94.81
2018-11-05T04:48:09.357Z,94.77
2018-11-05T04:49:09.827Z,94.69
2018-11-05T04:50:10.302Z,94.65
2018-11-05T04:51:10.773Z,94.61
2018-11-05T04:52:11.245Z,94.61
2018-11-05T04:53:11.717Z,94.61
2018-11-05T04:54:12.188Z,94.61
2018-11-05T04:55:12.664Z,94.63
2018-11-05T04:56:13.139Z,94.56
2018-11-05T04:57:13.611Z,94.48
2018-11-05T04:58:14.079Z,94.42
2018-11-05T04:59:14.552Z,94.30
2018-11-05T05:00:15.023Z,94.24
2018-11-05T05:01:15.498Z,94.23
2018-11-05T05:02:15.967Z,94.18
2018-11-05T05:03:16.492Z,94.12
2018-11-05T05:04:16.910Z,94.02
2018-11-05T05:05:17.417Z,94.03
2018-11-05T05:06:17.852Z,93.94
2018-11-05T05:07:18.323Z,93.92
2018-11-05T05:08:18.792Z,93.88
2018-11-05T05:09:19.264Z,93.79
2018-11-05T05:10:19.731Z,93.83
2018-11-05T05:11:20.201Z,93.80
2018-11-05T05:12:20.671Z,93.70
2018-11-05T05:13:21.141Z,93.64
2018-11-05T05:14:21.609Z,93.61
2018-11-05T05:15:22.081Z,93.69
2018-11-05T05:16:22.581Z,93.73
2018-11-05T05:17:23.017Z,93.90
2018-11-05T05:18:23.486Z,94.03
2018-11-05T05:19:23.954Z,94.10
2018-11-05T05:20:24.427Z,94.22
2018-11-05T05:21:24.892Z,94.34
2018-11-05T05:22:25.403Z,94.34
2018-11-05T05:23:25.828Z,94.43
2018-11-05T05:24:26.297Z,94.48
2018-11-05T05:25:26.767Z,94.56
2018-11-05T05:26:27.234Z,94.59
2018-11-05T05:27:27.702Z,94.47
2018-11-05T05:28:28.174Z,94.45
2018-11-05T05:29:28.638Z,94.43
2018-11-05T05:30:29.108Z,94.09
2018-11-05T05:31:29.615Z,93.65
2018-11-05T05:32:30.055Z,93.30
2018-11-05T05:33:30.554Z,93.04
2018-11-05T05:34:30.984Z,92.89
2018-11-05T05:35:31.452Z,92.85
2018-11-05T05:36:31.919Z,92.74
2018-11-05T05:37:32.391Z,92.56
2018-11-05T05:38:32.856Z,92.27
2018-11-05T05:39:33.327Z,92.16
2018-11-05T05:40:33.799Z,92.18
2018-11-05T05:41:34.273Z,92.25
2018-11-05T05:42:34.733Z,92.40
2018-11-05T05:43:35.208Z,92.60
2018-11-05T05:44:35.673Z,92.69
2018-11-05T05:45:36.145Z,92.92
2018-11-05T05:46:36.612Z,92.98
2018-11-05T05:47:37.082Z,93.10
2018-11-05T05:48:37.552Z,93.27
2018-11-05T05:49:38.024Z,93.41
2018-11-05T05:50:38.491Z,93.62
2018-11-05T05:51:38.959Z,93.65
2018-11-05T05:52:39.430Z,93.80
2018-11-05T05:53:39.901Z,93.92
2018-11-05T05:54:40.371Z,94.00
2018-11-05T05:55:40.870Z,94.02
2018-11-05T05:56:41.312Z,94.06
2018-11-05T05:57:41.782Z,94.07
2018-11-05T05:58:42.253Z,94.02
2018-11-05T05:59:42.756Z,94.04
2018-11-05T06:00:43.191Z,94.01
2018-11-05T06:01:43.662Z,93.92
2018-11-05T06:02:44.134Z,93.67
2018-11-05T06:03:44.603Z,93.25
2018-11-05T06:04:45.075Z,92.72
2018-11-05T06:05:45.556Z,92.45
2018-11-05T06:06:46.021Z,92.05
2018-11-05T06:07:46.484Z,91.89
2018-11-05T06:08:46.956Z,91.70
2018-11-05T06:09:47.428Z,91.70
2018-11-05T06:10:47.898Z,91.67
2018-11-05T06:11:48.368Z,91.77
2018-11-05T06:12:48.840Z,91.86
2018-11-05T06:13:49.314Z,91.97
2018-11-05T06:14:49.780Z,92.04
2018-11-05T06:15:50.266Z,92.15
2018-11-05T06:16:50.724Z,92.33
2018-11-05T06:17:51.197Z,92.51
2018-11-05T06:18:51.664Z,92.56
2018-11-05T06:19:52.140Z,92.64
2018-11-05T06:20:52.610Z,92.60
2018-11-05T06:21:53.121Z,92.60
2018-11-05T06:22:53.551Z,92.65
2018-11-05T06:23:54.021Z,92.81
2018-11-05T06:24:54.495Z,92.95
2018-11-05T06:25:54.965Z,93.03
2018-11-05T06:26:55.442Z,93.10
2018-11-05T06:27:55.907Z,93.20
2018-11-05T06:28:56.382Z,93.25
2018-11-05T06:29:56.851Z,93.33
2018-11-05T06:30:57.331Z,93.37
2018-11-05T06:31:57.795Z,93.45
2018-11-05T06:32:58.267Z,93.50
2018-11-05T06:33:58.743Z,93.42
2018-11-05T06:34:59.211Z,93.29
2018-11-05T06:35:59.680Z,92.77
2018-11-05T06:37:00.152Z,92.13
2018-11-05T06:38:00.626Z,91.63
2018-11-05T06:39:01.096Z,91.36
2018-11-05T06:40:01.569Z,91.19
2018-11-05T06:41:02.113Z,91.21
2018-11-05T06:42:02.511Z,91.29
2018-11-05T06:43:02.982Z,91.60
2018-11-05T06:44:03.480Z,91.71
2018-11-05T06:45:03.949Z,91.86
2018-11-05T06:46:04.400Z,91.97
2018-11-05T06:47:04.872Z,92.15
2018-11-05T06:48:05.343Z,92.30
2018-11-05T06:49:05.885Z,92.41
2018-11-05T06:50:06.285Z,92.53
2018-11-05T06:51:06.757Z,92.66
2018-11-05T06:52:07.229Z,92.68
2018-11-05T06:53:07.703Z,92.71
2018-11-05T06:54:08.176Z,92.64
2018-11-05T06:55:08.652Z,92.21
2018-11-05T06:56:09.119Z,91.87
2018-11-05T06:57:09.591Z,91.50
2018-11-05T06:58:10.063Z,89.79
2018-11-05T06:59:10.535Z,87.31
2018-11-05T07:00:11.008Z,84.78
2018-11-05T07:01:11.486Z,82.56
2018-11-05T07:02:11.954Z,80.87
2018-11-05T07:03:12.422Z,79.97
2018-11-05T07:04:12.896Z,79.74
2018-11-05T07:05:13.368Z,80.13
2018-11-05T07:06:13.842Z,80.18
2018-11-05T07:07:14.312Z,80.14
2018-11-05T07:08:14.786Z,79.71
2018-11-05T07:09:15.258Z,79.07
2018-11-05T07:10:15.781Z,78.60
2018-11-05T07:11:16.239Z,78.33
2018-11-05T07:12:16.673Z,78.22
2018-11-05T07:13:17.147Z,78.43
2018-11-05T07:14:17.618Z,78.35
2018-11-05T07:15:18.092Z,78.54
2018-11-05T07:16:18.563Z,78.75
2018-11-05T07:17:19.035Z,78.81
2018-11-05T07:18:19.527Z,78.70
2018-11-05T07:19:20.132Z,78.44
2018-11-05T07:20:20.456Z,77.93
2018-11-05T07:21:20.925Z,77.82
2018-11-05T07:22:21.401Z,77.36
2018-11-05T07:23:21.869Z,76.95
2018-11-05T07:24:22.343Z,76.83
2018-11-05T07:25:22.816Z,76.20
2018-11-05T07:26:23.305Z,76.01
2018-11-05T07:27:23.789Z,76.04
2018-11-05T07:28:24.233Z,76.12
2018-11-05T07:29:24.707Z,76.07
2018-11-05T07:30:25.179Z,75.56
2018-11-05T07:31:25.650Z,74.97
2018-11-05T07:32:26.124Z,75.40
2018-11-05T07:33:26.676Z,75.55
2018-11-05T07:34:27.128Z,74.67
2018-11-05T07:35:27.543Z,74.60
2018-11-05T07:36:28.015Z,75.14
2018-11-05T07:37:28.486Z,74.07
2018-11-05T07:38:28.960Z,74.20
2018-11-05T07:39:29.433Z,73.87
2018-11-05T07:40:29.905Z,74.84
2018-11-05T07:41:30.376Z,76.72
2018-11-05T07:42:30.852Z,78.76
2018-11-05T07:43:31.323Z,80.29
2018-11-05T07:44:31.795Z,81.90
2018-11-05T07:45:32.270Z,81.27
2018-11-05T07:46:32.737Z,80.72
2018-11-05T07:47:33.210Z,79.63
2018-11-05T07:48:33.680Z,78.48
2018-11-05T07:49:34.151Z,77.98
2018-11-05T07:50:34.654Z,77.74
2018-11-05T07:51:35.094Z,78.60
2018-11-05T07:52:35.565Z,78.94
2018-11-05T07:53:36.035Z,79.08
2018-11-05T07:54:36.509Z,81.16
2018-11-05T07:55:36.977Z,82.44
2018-11-05T07:56:37.493Z,83.40
2018-11-05T07:57:37.916Z,82.93
2018-11-05T07:58:38.383Z,81.65
2018-11-05T07:59:38.852Z,80.99
2018-11-05T08:00:39.372Z,80.37
2018-11-05T08:01:39.790Z,80.28
2018-11-05T08:02:40.279Z,79.88
2018-11-05T08:03:40.751Z,79.49
2018-11-05T08:04:41.196Z,78.71
2018-11-05T08:05:41.665Z,78.84
2018-11-05T08:06:42.133Z,78.64
2018-11-05T08:07:42.602Z,78.54
2018-11-05T08:08:43.074Z,78.23
2018-11-05T08:09:43.541Z,78.48
2018-11-05T08:10:44.008Z,78.70
2018-11-05T08:11:44.476Z,78.65
2018-11-05T08:12:44.947Z,78.56
2018-11-05T08:13:45.415Z,78.62
2018-11-05T08:14:45.886Z,79.21
2018-11-05T08:15:46.353Z,79.77
2018-11-05T08:16:46.823Z,82.50
2018-11-05T08:17:47.292Z,83.15
2018-11-05T08:18:47.760Z,83.83
2018-11-05T08:19:48.230Z,84.18
2018-11-05T08:20:48.700Z,83.83
2018-11-05T08:21:49.168Z,83.07
2018-11-05T08:22:49.647Z,82.72
2018-11-05T08:23:50.106Z,83.88
2018-11-05T08:24:50.579Z,83.62
2018-11-05T08:25:51.048Z,83.40
2018-11-05T08:26:51.519Z,81.81
2018-11-05T08:27:51.987Z,81.19
2018-11-05T08:28:52.458Z,80.08
2018-11-05T08:29:52.928Z,79.21
2018-11-05T08:30:53.452Z,79.65
2018-11-05T08:31:53.872Z,79.85
2018-11-05T08:32:54.343Z,80.29
2018-11-05T08:33:54.810Z,78.49
2018-11-05T08:34:55.282Z,77.48
2018-11-05T08:35:55.752Z,79.28
2018-11-05T08:36:56.223Z,79.02
2018-11-05T08:37:56.700Z,78.44
2018-11-05T08:38:57.165Z,77.64
2018-11-05T08:39:57.637Z,77.14
2018-11-05T08:40:58.111Z,77.77
2018-11-05T08:41:58.581Z,77.59
2018-11-05T08:42:59.060Z,78.03
2018-11-05T08:43:59.524Z,78.84
2018-11-05T08:44:59.998Z,78.77
2018-11-05T08:46:00.469Z,77.70
2018-11-05T08:47:01.143Z,77.54
2018-11-05T08:48:01.414Z,77.51
2018-11-05T08:49:01.885Z,77.39
2018-11-05T08:50:02.424Z,78.47
2018-11-05T08:51:02.990Z,78.42
2018-11-05T08:52:03.302Z,78.89
2018-11-05T08:53:03.777Z,78.78
2018-11-05T08:54:04.327Z,81.92
2018-11-05T08:55:04.723Z,81.29
2018-11-05T08:56:05.244Z,81.44
2018-11-05T08:57:05.668Z,81.23
2018-11-05T08:58:06.148Z,81.61
2018-11-05T08:59:06.616Z,80.88
2018-11-05T09:00:07.088Z,81.53
2018-11-05T09:01:07.754Z,82.40
2018-11-05T09:02:08.038Z,81.64
2018-11-05T09:03:08.508Z,81.78
2018-11-05T09:04:08.981Z,82.35
2018-11-05T09:05:09.509Z,82.14
2018-11-05T09:06:09.980Z,82.02
2018-11-05T09:07:10.404Z,82.79
2018-11-05T09:08:10.874Z,83.14
2018-11-05T09:09:11.347Z,84.05
2018-11-05T09:10:11.895Z,85.03
2018-11-05T09:11:12.751Z,85.04
2018-11-05T09:12:12.851Z,86.13
2018-11-05T09:13:13.237Z,87.51
2018-11-05T09:14:13.711Z,88.24
2018-11-05T09:15:14.182Z,88.82
2018-11-05T09:16:14.713Z,88.47
2018-11-05T09:17:15.125Z,88.57
2018-11-05T09:18:15.597Z,88.49
2018-11-05T09:19:16.074Z,87.84
2018-11-05T09:20:16.538Z,88.21
2018-11-05T09:21:17.009Z,88.08
2018-11-05T09:22:17.482Z,88.51
2018-11-05T09:23:17.954Z,87.98
2018-11-05T09:24:18.422Z,87.81
2018-11-05T09:25:18.894Z,87.98
2018-11-05T09:26:19.364Z,88.14
2018-11-05T09:27:19.833Z,88.37
2018-11-05T09:28:20.432Z,88.73
2018-11-05T09:29:20.776Z,88.79
2018-11-05T09:30:21.244Z,87.91
2018-11-05T09:31:21.715Z,87.85
2018-11-05T09:32:22.186Z,86.86
2018-11-05T09:33:22.652Z,85.59
2018-11-05T09:34:23.124Z,85.89
2018-11-05T09:35:23.626Z,85.28
2018-11-05T09:36:24.065Z,83.85
2018-11-05T09:37:24.531Z,85.04
2018-11-05T09:38:25.002Z,85.74
2018-11-05T09:39:25.475Z,85.42
2018-11-05T09:40:25.944Z,85.26
2018-11-05T09:41:26.414Z,85.31
2018-11-05T09:42:26.882Z,85.84
2018-11-05T09:43:27.354Z,85.28
2018-11-05T09:44:27.824Z,84.71
2018-11-05T09:45:28.296Z,84.66
2018-11-05T09:46:28.767Z,84.64
2018-11-05T09:47:29.241Z,85.06
2018-11-05T09:48:29.708Z,85.42
2018-11-05T09:49:30.191Z,86.28
2018-11-05T09:50:30.656Z,86.13
2018-11-05T09:51:31.123Z,86.32
2018-11-05T09:52:31.596Z,86.54
2018-11-05T09:53:32.066Z,86.27
2018-11-05T09:54:32.540Z,86.59
2018-11-05T09:55:33.063Z,86.68
2018-11-05T09:56:33.484Z,86.15
2018-11-05T09:57:33.957Z,86.89
2018-11-05T09:58:34.427Z,86.54
2018-11-05T09:59:34.904Z,86.47
2018-11-05T10:00:35.374Z,87.16
2018-11-05T10:01:35.847Z,87.17
2018-11-05T10:02:36.353Z,87.37
2018-11-05T10:03:36.919Z,86.98
2018-11-05T10:04:37.445Z,87.07
2018-11-05T10:05:37.800Z,86.95
2018-11-05T10:06:38.218Z,87.36
2018-11-05T10:07:38.745Z,88.33
2018-11-05T10:08:39.167Z,88.02
2018-11-05T10:09:39.649Z,86.38
2018-11-05T10:10:40.170Z,83.43
2018-11-05T10:11:40.588Z,85.14
2018-11-05T10:12:41.060Z,86.46
2018-11-05T10:13:41.537Z,86.26
2018-11-05T10:14:42.008Z,85.23
2018-11-05T10:15:42.483Z,83.66
2018-11-05T10:16:42.955Z,84.04
2018-11-05T10:17:43.430Z,84.17
2018-11-05T10:18:43.904Z,85.10
2018-11-05T10:19:44.375Z,86.55
2018-11-05T10:20:44.849Z,87.23
2018-11-05T10:21:45.323Z,87.64
2018-11-05T10:22:45.796Z,88.50
2018-11-05T10:23:46.269Z,88.59
2018-11-05T10:24:46.868Z,87.48
2018-11-05T10:25:47.214Z,87.82
2018-11-05T10:26:47.687Z,88.21
2018-11-05T10:27:48.163Z,88.62
2018-11-05T10:28:48.635Z,88.58
2018-11-05T10:29:49.101Z,88.36
2018-11-05T10:30:49.584Z,87.88
2018-11-05T10:31:50.048Z,87.09
2018-11-05T10:32:50.539Z,85.97
2018-11-05T10:33:51.076Z,86.81
2018-11-05T10:34:51.462Z,85.81
2018-11-05T10:35:51.930Z,86.30
2018-11-05T10:36:52.402Z,87.70
2018-11-05T10:37:52.875Z,88.20
2018-11-05T10:38:53.344Z,89.19
2018-11-05T10:39:53.871Z,89.02
2018-11-05T10:40:54.282Z,88.20
2018-11-05T10:41:54.758Z,87.85
2018-11-05T10:42:55.224Z,88.11
2018-11-05T10:43:55.696Z,86.32
2018-11-05T10:44:56.165Z,84.49
2018-11-05T10:45:56.635Z,81.54
2018-11-05T10:46:57.105Z,82.04
2018-11-05T10:47:57.576Z,83.26
2018-11-05T10:48:58.045Z,82.11
2018-11-05T10:49:58.515Z,82.08
2018-11-05T10:50:59.002Z,81.46
2018-11-05T10:51:59.532Z,80.60
2018-11-05T10:52:59.925Z,77.92
2018-11-05T10:54:00.398Z,81.39
2018-11-05T10:55:00.871Z,82.59
2018-11-05T10:56:01.341Z,83.13
2018-11-05T10:57:01.872Z,84.40
2018-11-05T10:58:02.316Z,77.98
2018-11-05T10:59:02.754Z,78.96
2018-11-05T11:00:03.223Z,79.03
2018-11-05T11:01:03.694Z,76.92
2018-11-05T11:02:04.165Z,76.31
2018-11-05T11:03:04.637Z,78.42
2018-11-05T11:04:05.193Z,78.43
2018-11-05T11:05:05.585Z,78.04
2018-11-05T11:06:06.056Z,77.29
2018-11-05T11:07:06.527Z,77.26
2018-11-05T11:08:07.000Z,76.78
2018-11-05T11:09:07.472Z,77.65
2018-11-05T11:10:07.963Z,76.93
2018-11-05T11:11:08.419Z,77.43
2018-11-05T11:12:08.896Z,76.51
2018-11-05T11:13:09.364Z,78.34
2018-11-05T11:14:09.838Z,76.13
2018-11-05T11:15:10.329Z,74.58
2018-11-05T11:16:10.792Z,75.66
2018-11-05T11:17:11.257Z,74.93
2018-11-05T11:18:11.732Z,74.51
2018-11-05T11:19:12.205Z,75.48
2018-11-05T11:20:12.682Z,75.00
2018-11-05T11:21:13.150Z,75.62
2018-11-05T11:22:13.722Z,74.46
2018-11-05T11:23:14.097Z,73.75
2018-11-05T11:24:14.572Z,74.16
2018-11-05T11:25:15.044Z,73.34
2018-11-05T11:26:15.518Z,72.64
2018-11-05T11:27:15.991Z,74.38
2018-11-05T11:28:16.549Z,72.51
2018-11-05T11:29:17.101Z,74.57
2018-11-05T11:30:17.407Z,73.56
2018-11-05T11:31:17.882Z,74.14
2018-11-05T11:32:18.353Z,72.86
2018-11-05T11:33:18.825Z,74.17
2018-11-05T11:34:19.296Z,75.43
2018-11-05T11:35:19.771Z,76.41
2018-11-05T11:36:20.244Z,76.66
2018-11-05T11:37:20.764Z,75.16
2018-11-05T11:38:21.185Z,77.06
2018-11-05T11:39:21.655Z,76.01
2018-11-05T11:40:22.127Z,77.24
2018-11-05T11:41:22.597Z,76.92
2018-11-05T11:42:23.113Z,77.04
2018-11-05T11:43:23.540Z,77.45
2018-11-05T11:44:24.053Z,77.11
2018-11-05T11:45:24.483Z,77.10
2018-11-05T11:46:24.955Z,78.14
2018-11-05T11:47:25.427Z,77.82
2018-11-05T11:48:25.894Z,77.85
2018-11-05T11:49:26.366Z,79.51
2018-11-05T11:50:26.837Z,79.55
2018-11-05T11:51:27.305Z,80.73
2018-11-05T11:52:27.807Z,80.12
2018-11-05T11:53:28.395Z,80.02
2018-11-05T11:54:28.720Z,79.01
2018-11-05T11:55:29.188Z,79.84
2018-11-05T11:56:29.661Z,78.68
2018-11-05T11:57:30.128Z,78.77
2018-11-05T11:58:30.600Z,78.22
2018-11-05T11:59:31.074Z,77.31
2018-11-05T12:00:31.543Z,77.69
2018-11-05T12:01:32.014Z,77.91
2018-11-05T12:02:32.483Z,78.02
2018-11-05T12:03:32.956Z,77.74
2018-11-05T12:04:33.428Z,77.90
2018-11-05T12:05:33.917Z,78.18
2018-11-05T12:06:34.372Z,77.19
2018-11-05T12:07:34.843Z,76.43
2018-11-05T12:08:35.316Z,75.37
2018-11-05T12:09:35.787Z,76.84
2018-11-05T12:10:36.258Z,74.96
2018-11-05T12:11:36.736Z,75.07
2018-11-05T12:12:37.207Z,76.16
2018-11-05T12:13:37.681Z,75.02
2018-11-05T12:14:38.303Z,76.01
2018-11-05T12:15:38.625Z,75.12
2018-11-05T12:16:39.099Z,75.58
2018-11-05T12:17:39.598Z,75.39
2018-11-05T12:18:40.046Z,75.48
2018-11-05T12:19:40.525Z,74.77
2018-11-05T12:20:41.033Z,76.31
2018-11-05T12:21:41.483Z,76.57
2018-11-05T12:22:41.945Z,76.58
2018-11-05T12:23:42.421Z,78.10
2018-11-05T12:24:42.900Z,76.77
2018-11-05T12:25:43.370Z,76.77
2018-11-05T12:26:43.863Z,76.17
2018-11-05T12:27:44.323Z,76.10
2018-11-05T12:28:44.797Z,75.79
2018-11-05T12:29:45.269Z,75.99
2018-11-05T12:30:45.743Z,75.37
2018-11-05T12:31:46.219Z,75.74
2018-11-05T12:32:46.692Z,74.98
2018-11-05T12:33:47.170Z,74.63
2018-11-05T12:34:47.649Z,74.89
2018-11-05T12:35:48.117Z,73.88
2018-11-05T12:36:48.590Z,74.43
2018-11-05T12:37:49.067Z,73.97
2018-11-05T12:38:49.600Z,76.45
2018-11-05T12:39:50.013Z,76.95
2018-11-05T12:40:50.486Z,76.86
2018-11-05T12:41:50.959Z,76.26
2018-11-05T12:42:51.432Z,75.46
2018-11-05T12:43:51.906Z,75.27
2018-11-05T12:44:52.392Z,75.60
2018-11-05T12:45:52.855Z,75.71
2018-11-05T12:46:53.325Z,78.04
2018-11-05T12:47:53.797Z,78.24
2018-11-05T12:48:54.271Z,77.65
2018-11-05T12:49:54.743Z,76.11
2018-11-05T12:50:55.220Z,76.37
2018-11-05T12:51:55.951Z,77.00
2018-11-05T12:52:56.161Z,77.20
2018-11-05T12:53:56.632Z,76.24
2018-11-05T12:54:57.105Z,76.32
2018-11-05T12:55:57.577Z,76.33
2018-11-05T12:56:58.052Z,77.41
2018-11-05T12:57:58.522Z,78.19
2018-11-05T12:58:58.994Z,78.53
2018-11-05T12:59:59.463Z,78.83